Maximilian Sabitzer

Recruteur - Red Bull Salzburg
19 Nov 2028
Dimanche
Processus

Personnalité

Adaptabilité (8) Ambition (14) Controverse (9) Loyauté (18) Pression (4) Professionnalisme (11) Sportivité (8) Tempérament (9)

Profil

Style d'entraînement Démocratique
Diplôme Continental A
Détermination 11
Gestion des joueurs 11
Motivation 15
Discipline 14
Satisfaction professionnelle
39%
Fatigue
0%
Rôle Recruteur
Salaire 16.4K p/s
Contrat 14.03.2029

Performance

Comportement Bon
Efficacité de l'entraînement
23%
Développement des joueurs
65%
Prévention des blessures
75%
Mise en place tactique
45%

Événements récents

A participé à une réunion de recrutement maintenant
A recommandé une cible de transfert maintenant
A recommandé une cible de transfert maintenant
A recommandé une cible de transfert maintenant
A recommandé une cible de transfert maintenant
A recommandé une cible de transfert maintenant
A évalué un joueur maintenant
A évalué un joueur 7j

Suivi en cours

80
Joueur Club Statut Capacité Confiance Observé Dernière observation Dernier vote
Facundo Buonanotte Bristol City Actif 155 / 143 40% 1 15.11.2028 -
Nicolò Cambiaghi Bologna Actif 153 / 138 40% 1 15.11.2028 -
Endrick Boca Juniors Actif 162 / 171 40% 4 11.11.2028 -
Matías Fernández-Pardo Atalanta Actif 151 / 166 40% 1 11.11.2028 -
Harvey Barnes Newcastle United Actif 153 / 154 40% 1 11.11.2028 -
Rodrigo Gomes Wolverhampton Actif 149 / 157 40% 2 07.11.2028 -
Yehor Yarmoliuk Brentford Actif 156 / 151 40% 2 07.11.2028 -
Marcus Tavernier Bournemouth Actif 156 / 154 40% 1 07.11.2028 -
Patrick Dorgu Bristol City Actif 151 / 145 40% 2 06.11.2028 -
Darwin Núñez Al-Hilal Actif 159 / 155 40% 4 02.11.2028 -
Juanlu Bournemouth Actif 159 / 151 40% 2 02.11.2028 -
Matteo Cancellieri Flamengo Actif 152 / 146 40% 1 02.11.2028 -
Joe Willock Newcastle United Actif 155 / 149 40% 1 28.10.2028 -
Carlos Alcaraz Stoke City Actif 157 / 165 40% 2 25.10.2028 -
Brenden Aaronson Internacional Actif 147 / 155 40% 1 25.10.2028 -
Tim Lemperle Bayern Munich Actif 152 / 160 40% 1 25.10.2028 -
Lewis Miley Newcastle United Actif 157 / 155 40% 1 20.10.2028 -
Neil El Aynaoui AS Roma Actif 158 / 149 40% 1 20.10.2028 -
Amadou Onana Aston Villa Actif 160 / 156 40% 2 15.10.2028 -
Fábio Vieira Huddersfield Town Actif 156 / 150 40% 1 13.10.2028 -
Johan Manzambi Millwall Actif 151 / 150 40% 1 13.10.2028 -
Arnaud Kalimuendo Nottingham Forest Actif 153 / 159 40% 2 12.10.2028 -
Matt O'Riley Brighton Actif 157 / 164 40% 1 12.10.2028 -
Óscar Mingueza Crystal Palace Actif 157 / 161 40% 1 04.10.2028 -
Morgan Gibbs-White Chelsea Actif 159 / 162 40% 1 04.10.2028 -
Christopher Nkunku AC Milan Actif 163 / 157 40% 1 21.08.2028 -
Donyell Malen AS Roma Actif 160 / 157 40% 1 21.08.2028 -
Cucho Hernández Granada Actif 159 / 148 40% 1 15.08.2028 -
Brajan Gruda Brighton Actif 161 / 149 40% 1 15.08.2028 -
Dodo Fiorentina Perdu 158 / 166 40% 1 15.08.2028 -
Gianluca Scamacca Atalanta Actif 152 / 149 40% 2 31.07.2028 -
Marcus Rashford Manchester United Actif 164 / 167 40% 1 31.07.2028 -
Kelvin Boateng Austria Wien Actif 107 / 106 72% 1 17.07.2028 Approuver
Babis Kostoulas Oxford United Actif 139 / 156 40% 1 11.07.2028 -
James Garner Everton Perdu 160 / 161 40% 1 11.07.2028 -
Gustav Isaksen Lazio Actif 151 / 154 40% 1 11.07.2028 -
Marlon Mustapha Austria Wien Perdu 120 / 109 72% 1 10.07.2028 -
Christian Pulisic AC Milan Actif 174 / 164 40% 2 08.07.2028 -
Loïs Openda Juventus Actif 153 / 160 40% 2 08.07.2028 -
Nick Woltemade Newcastle United Actif 160 / 168 40% 1 08.07.2028 -
Samu Aghehowa Udinese Actif 155 / 146 40% 1 02.07.2028 -
Mikey Moore Stockport County Actif 133 / 142 40% 1 13.06.2028 -
Jeff Ekhator Juventus Actif 142 / 131 40% 1 13.06.2028 -
Jacob Peter Hödl Sturm Graz Actif 128 / 125 72% 1 03.06.2028 Approuver
Marko Raguž Sturm Graz Actif 113 / 109 72% 1 02.06.2028 Approuver
Boubacar Kamara Aston Villa Actif 174 / 167 40% 2 01.06.2028 -
Jarrad Branthwaite Everton Actif 158 / 170 40% 1 01.06.2028 -
Exequiel Palacios Lazio Perdu 161 / 169 40% 1 31.05.2028 -
Manu Koné AS Roma Actif 169 / 162 40% 1 31.05.2028 -
Lee Tae-Suk Austria Wien Perdu 129 / 133 69% 1 03.06.2027 -
Caoimhin Kelleher Brentford Actif 151 / 158 40% 1 31.05.2027 -
Leon Klanac Bayern Munich Actif 96 / 115 40% 5 29.05.2027 -
Gonçalo Ribeiro Porto Actif 101 / 96 40% 5 25.05.2027 -
Scott Twine Bristol City Actif 123 / 111 40% 2 25.05.2027 -
Isaiah Jones Luton Town Actif 123 / 122 40% 2 25.05.2027 -
Marcello Trippel Borussia Mönchengladbach Actif 96 / 103 40% 2 25.05.2027 -
Martin Baturina Como Actif 142 / 128 40% 1 25.05.2027 -
Thiago Parga Huracán Actif 83 / 99 40% 1 25.05.2027 -
Felipe Igón Racing Club Actif 97 / 109 40% 1 23.05.2027 -
Anthony Cletus Bendel Insurance Actif 94 / 84 40% 2 15.05.2027 -
Federico Bonilla River Plate Actif 91 / 102 40% 1 09.05.2027 -
Lautaro Herrera Estudiantes Actif 103 / 102 40% 2 05.05.2027 -
Jack Rudoni Coventry City Actif 141 / 138 40% 3 04.05.2027 -
Finn Azaz Southampton Actif 133 / 126 40% 1 04.05.2027 -
Matías Zorzoli Newell's Old Boys Actif 94 / 100 40% 1 21.04.2027 -
Joe Gelhardt Hull City Actif 140 / 129 40% 1 17.04.2027 -
Tyrese Campbell Sheffield United Actif 133 / 130 40% 1 15.04.2027 -
Brooke Norton-Cuffy Hull City Actif 135 / 136 40% 1 15.04.2027 -
Florentino Luís Ipswich Town Actif 142 / 148 40% 1 15.04.2027 -
Mohamed-Ali Cho Hull City Actif 132 / 125 40% 1 13.04.2027 -
Luca Martelli Forli Actif 83 / 106 40% 3 07.04.2027 -
Ramiro Buratti River Plate Actif 85 / 105 40% 2 05.04.2027 -
Ikenna Nkwazema FC Diarra Actif 76 / 88 40% 1 05.04.2027 -
Diego Mina Luzern Actif 89 / 108 40% 2 02.04.2027 -
Fabricio Díaz San Lorenzo Actif 91 / 111 40% 1 29.03.2027 -
Ayoub Akabou Ceuta Actif 91 / 100 40% 1 26.03.2027 -
Jakub Badžgoň MSK Zilina Actif 103 / 95 40% 1 25.03.2027 -
Gerardo Díaz San Martín SJ Actif 88 / 108 40% 1 23.03.2027 -
Rene Renner Wolfsberger AC Actif 123 / 126 69% 1 31.08.2026 Approuver
Cheick Mamadou Diabaté Wolfsberger AC Actif 121 / 113 69% 1 24.08.2026 Approuver